sensor_id;sensor_type;location;lat;lon;timestamp;P1;durP1;ratioP1;P2;durP2;ratioP2
4980;SDS011;2507;50.392;7.482;2023-12-04T00:01:16;16.13;;;11.33;;
4980;SDS011;2507;50.392;7.482;2023-12-04T00:03:42;13.93;;;11.27;;
4980;SDS011;2507;50.392;7.482;2023-12-04T00:06:07;14.10;;;11.00;;
4980;SDS011;2507;50.392;7.482;2023-12-04T00:08:33;15.90;;;11.90;;
4980;SDS011;2507;50.392;7.482;2023-12-04T00:11:00;14.20;;;10.97;;
4980;SDS011;2507;50.392;7.482;2023-12-04T00:13:25;15.17;;;12.00;;
4980;SDS011;2507;50.392;7.482;2023-12-04T00:15:51;16.33;;;11.80;;
4980;SDS011;2507;50.392;7.482;2023-12-04T00:18:16;14.77;;;11.40;;
4980;SDS011;2507;50.392;7.482;2023-12-04T00:20:41;16.57;;;12.57;;
4980;SDS011;2507;50.392;7.482;2023-12-04T00:23:06;17.43;;;13.00;;
4980;SDS011;2507;50.392;7.482;2023-12-04T00:25:31;13.83;;;11.53;;
4980;SDS011;2507;50.392;7.482;2023-12-04T00:27:57;15.93;;;12.30;;
4980;SDS011;2507;50.392;7.482;2023-12-04T00:30:22;17.13;;;13.00;;
4980;SDS011;2507;50.392;7.482;2023-12-04T00:32:48;16.00;;;11.70;;
4980;SDS011;2507;50.392;7.482;2023-12-04T00:35:13;17.20;;;12.33;;
4980;SDS011;2507;50.392;7.482;2023-12-04T00:37:38;15.03;;;11.87;;
4980;SDS011;2507;50.392;7.482;2023-12-04T00:40:05;13.87;;;12.00;;
4980;SDS011;2507;50.392;7.482;2023-12-04T00:42:31;15.57;;;11.60;;
4980;SDS011;2507;50.392;7.482;2023-12-04T00:44:56;14.73;;;11.60;;
4980;SDS011;2507;50.392;7.482;2023-12-04T00:47:22;14.43;;;11.37;;
4980;SDS011;2507;50.392;7.482;2023-12-04T00:49:47;14.93;;;10.80;;
4980;SDS011;2507;50.392;7.482;2023-12-04T00:52:12;13.17;;;10.40;;
4980;SDS011;2507;50.392;7.482;2023-12-04T00:54:40;16.10;;;11.30;;
4980;SDS011;2507;50.392;7.482;2023-12-04T00:57:06;16.67;;;11.00;;
4980;SDS011;2507;50.392;7.482;2023-12-04T00:59:31;18.70;;;12.00;;
4980;SDS011;2507;50.392;7.482;2023-12-04T01:01:56;16.33;;;11.70;;
4980;SDS011;2507;50.392;7.482;2023-12-04T01:04:21;14.90;;;12.30;;
4980;SDS011;2507;50.392;7.482;2023-12-04T01:06:47;15.27;;;11.33;;
4980;SDS011;2507;50.392;7.482;2023-12-04T01:09:12;16.33;;;11.50;;
4980;SDS011;2507;50.392;7.482;2023-12-04T01:11:37;16.57;;;11.40;;
4980;SDS011;2507;50.392;7.482;2023-12-04T01:14:02;14.07;;;11.77;;
4980;SDS011;2507;50.392;7.482;2023-12-04T01:16:28;14.43;;;11.50;;
4980;SDS011;2507;50.392;7.482;2023-12-04T01:18:53;16.70;;;11.30;;
4980;SDS011;2507;50.392;7.482;2023-12-04T01:21:19;16.67;;;12.53;;
4980;SDS011;2507;50.392;7.482;2023-12-04T01:23:44;15.23;;;12.40;;
4980;SDS011;2507;50.392;7.482;2023-12-04T01:26:09;15.73;;;11.23;;
4980;SDS011;2507;50.392;7.482;2023-12-04T01:28:35;13.77;;;11.03;;
4980;SDS011;2507;50.392;7.482;2023-12-04T01:31:00;15.90;;;12.10;;
4980;SDS011;2507;50.392;7.482;2023-12-04T01:33:25;17.47;;;12.80;;
4980;SDS011;2507;50.392;7.482;2023-12-04T01:35:51;19.37;;;12.33;;
4980;SDS011;2507;50.392;7.482;2023-12-04T01:38:16;18.57;;;13.47;;
4980;SDS011;2507;50.392;7.482;2023-12-04T01:40:41;17.63;;;13.10;;
4980;SDS011;2507;50.392;7.482;2023-12-04T01:43:06;16.47;;;11.90;;
4980;SDS011;2507;50.392;7.482;2023-12-04T01:45:32;17.03;;;12.70;;
4980;SDS011;2507;50.392;7.482;2023-12-04T01:47:57;17.20;;;13.40;;
4980;SDS011;2507;50.392;7.482;2023-12-04T01:50:23;18.87;;;13.57;;
4980;SDS011;2507;50.392;7.482;2023-12-04T01:52:50;16.70;;;12.83;;
4980;SDS011;2507;50.392;7.482;2023-12-04T01:55:16;17.07;;;12.90;;
4980;SDS011;2507;50.392;7.482;2023-12-04T01:57:42;17.13;;;12.93;;
4980;SDS011;2507;50.392;7.482;2023-12-04T02:00:07;20.63;;;13.60;;
4980;SDS011;2507;50.392;7.482;2023-12-04T02:02:36;21.10;;;14.00;;
4980;SDS011;2507;50.392;7.482;2023-12-04T02:05:03;17.00;;;13.40;;
4980;SDS011;2507;50.392;7.482;2023-12-04T02:07:30;17.80;;;13.60;;
4980;SDS011;2507;50.392;7.482;2023-12-04T02:09:56;16.90;;;12.93;;
4980;SDS011;2507;50.392;7.482;2023-12-04T02:12:21;17.00;;;13.03;;
4980;SDS011;2507;50.392;7.482;2023-12-04T02:14:47;18.63;;;13.23;;
4980;SDS011;2507;50.392;7.482;2023-12-04T02:17:12;17.17;;;13.80;;
4980;SDS011;2507;50.392;7.482;2023-12-04T02:19:38;17.83;;;12.70;;
4980;SDS011;2507;50.392;7.482;2023-12-04T02:22:03;18.00;;;14.20;;
4980;SDS011;2507;50.392;7.482;2023-12-04T02:24:28;17.43;;;13.40;;
4980;SDS011;2507;50.392;7.482;2023-12-04T02:26:57;16.73;;;13.03;;
4980;SDS011;2507;50.392;7.482;2023-12-04T02:29:29;18.03;;;13.63;;
4980;SDS011;2507;50.392;7.482;2023-12-04T02:31:56;18.87;;;13.90;;
4980;SDS011;2507;50.392;7.482;2023-12-04T02:34:23;17.67;;;13.17;;
4980;SDS011;2507;50.392;7.482;2023-12-04T02:36:49;17.80;;;13.93;;
4980;SDS011;2507;50.392;7.482;2023-12-04T02:39:16;18.30;;;13.50;;
4980;SDS011;2507;50.392;7.482;2023-12-04T02:41:41;17.03;;;12.90;;
4980;SDS011;2507;50.392;7.482;2023-12-04T02:44:07;17.87;;;12.90;;
4980;SDS011;2507;50.392;7.482;2023-12-04T02:46:32;20.30;;;14.50;;
4980;SDS011;2507;50.392;7.482;2023-12-04T02:48:57;18.93;;;13.80;;
4980;SDS011;2507;50.392;7.482;2023-12-04T02:51:22;19.80;;;14.90;;
4980;SDS011;2507;50.392;7.482;2023-12-04T02:53:50;21.87;;;13.90;;
4980;SDS011;2507;50.392;7.482;2023-12-04T02:56:16;19.53;;;14.20;;
4980;SDS011;2507;50.392;7.482;2023-12-04T02:58:41;19.90;;;14.43;;
4980;SDS011;2507;50.392;7.482;2023-12-04T03:01:06;18.73;;;14.00;;
4980;SDS011;2507;50.392;7.482;2023-12-04T03:03:31;15.97;;;12.60;;
4980;SDS011;2507;50.392;7.482;2023-12-04T03:05:57;17.77;;;14.13;;
4980;SDS011;2507;50.392;7.482;2023-12-04T03:08:22;20.17;;;13.90;;
4980;SDS011;2507;50.392;7.482;2023-12-04T03:10:47;18.83;;;14.10;;
4980;SDS011;2507;50.392;7.482;2023-12-04T03:13:13;17.20;;;13.70;;
4980;SDS011;2507;50.392;7.482;2023-12-04T03:15:38;17.30;;;12.97;;
4980;SDS011;2507;50.392;7.482;2023-12-04T03:18:03;19.23;;;14.40;;
4980;SDS011;2507;50.392;7.482;2023-12-04T03:20:28;20.13;;;13.63;;
4980;SDS011;2507;50.392;7.482;2023-12-04T03:22:53;20.07;;;14.20;;
4980;SDS011;2507;50.392;7.482;2023-12-04T03:25:19;19.30;;;13.87;;
4980;SDS011;2507;50.392;7.482;2023-12-04T03:27:44;20.73;;;15.40;;
4980;SDS011;2507;50.392;7.482;2023-12-04T03:30:09;22.20;;;14.47;;
4980;SDS011;2507;50.392;7.482;2023-12-04T03:32:35;18.17;;;14.47;;
4980;SDS011;2507;50.392;7.482;2023-12-04T03:35:00;20.03;;;14.47;;
4980;SDS011;2507;50.392;7.482;2023-12-04T03:37:26;18.10;;;14.07;;
4980;SDS011;2507;50.392;7.482;2023-12-04T03:39:51;17.73;;;13.70;;
4980;SDS011;2507;50.392;7.482;2023-12-04T03:42:16;19.77;;;14.37;;
4980;SDS011;2507;50.392;7.482;2023-12-04T03:44:42;18.70;;;14.17;;
4980;SDS011;2507;50.392;7.482;2023-12-04T03:47:07;18.57;;;14.30;;
4980;SDS011;2507;50.392;7.482;2023-12-04T03:49:32;20.50;;;15.00;;
4980;SDS011;2507;50.392;7.482;2023-12-04T03:51:57;20.37;;;14.20;;
4980;SDS011;2507;50.392;7.482;2023-12-04T03:54:23;20.10;;;14.70;;
4980;SDS011;2507;50.392;7.482;2023-12-04T03:56:48;22.00;;;14.73;;
4980;SDS011;2507;50.392;7.482;2023-12-04T03:59:13;18.80;;;14.13;;
4980;SDS011;2507;50.392;7.482;2023-12-04T04:01:38;21.10;;;14.80;;
4980;SDS011;2507;50.392;7.482;2023-12-04T04:04:04;20.00;;;14.77;;
4980;SDS011;2507;50.392;7.482;2023-12-04T04:06:29;18.90;;;14.10;;
4980;SDS011;2507;50.392;7.482;2023-12-04T04:08:54;20.27;;;14.90;;
4980;SDS011;2507;50.392;7.482;2023-12-04T04:11:20;19.70;;;14.50;;
4980;SDS011;2507;50.392;7.482;2023-12-04T04:13:45;22.30;;;16.47;;
4980;SDS011;2507;50.392;7.482;2023-12-04T04:16:16;25.17;;;16.47;;
4980;SDS011;2507;50.392;7.482;2023-12-04T04:18:42;23.37;;;14.57;;
4980;SDS011;2507;50.392;7.482;2023-12-04T04:21:08;19.47;;;15.03;;
4980;SDS011;2507;50.392;7.482;2023-12-04T04:23:33;20.40;;;14.57;;
4980;SDS011;2507;50.392;7.482;2023-12-04T04:25:58;22.00;;;15.30;;
4980;SDS011;2507;50.392;7.482;2023-12-04T04:28:24;19.80;;;14.93;;
4980;SDS011;2507;50.392;7.482;2023-12-04T04:30:49;18.80;;;14.80;;
4980;SDS011;2507;50.392;7.482;2023-12-04T04:33:14;20.50;;;14.93;;
4980;SDS011;2507;50.392;7.482;2023-12-04T04:35:39;19.77;;;14.10;;
4980;SDS011;2507;50.392;7.482;2023-12-04T04:38:05;20.00;;;15.00;;
4980;SDS011;2507;50.392;7.482;2023-12-04T04:40:30;18.53;;;14.90;;
4980;SDS011;2507;50.392;7.482;2023-12-04T04:42:55;21.07;;;14.97;;
4980;SDS011;2507;50.392;7.482;2023-12-04T04:45:20;19.73;;;15.23;;
4980;SDS011;2507;50.392;7.482;2023-12-04T04:47:46;22.00;;;15.50;;
4980;SDS011;2507;50.392;7.482;2023-12-04T04:50:11;23.27;;;15.07;;
4980;SDS011;2507;50.392;7.482;2023-12-04T04:52:36;21.10;;;16.10;;
4980;SDS011;2507;50.392;7.482;2023-12-04T04:55:02;22.57;;;15.37;;
4980;SDS011;2507;50.392;7.482;2023-12-04T04:57:29;21.13;;;15.43;;
4980;SDS011;2507;50.392;7.482;2023-12-04T04:59:54;20.13;;;15.77;;
4980;SDS011;2507;50.392;7.482;2023-12-04T05:02:20;20.50;;;15.47;;
4980;SDS011;2507;50.392;7.482;2023-12-04T05:04:45;23.47;;;16.40;;
4980;SDS011;2507;50.392;7.482;2023-12-04T05:07:10;20.80;;;15.40;;
4980;SDS011;2507;50.392;7.482;2023-12-04T05:09:35;24.60;;;16.20;;
4980;SDS011;2507;50.392;7.482;2023-12-04T05:12:01;21.93;;;16.13;;
4980;SDS011;2507;50.392;7.482;2023-12-04T05:14:26;23.63;;;17.20;;
4980;SDS011;2507;50.392;7.482;2023-12-04T05:16:52;23.50;;;17.37;;
4980;SDS011;2507;50.392;7.482;2023-12-04T05:19:17;22.57;;;16.57;;
4980;SDS011;2507;50.392;7.482;2023-12-04T05:21:42;21.67;;;16.60;;
4980;SDS011;2507;50.392;7.482;2023-12-04T05:24:08;23.97;;;18.10;;
4980;SDS011;2507;50.392;7.482;2023-12-04T05:26:33;25.43;;;16.07;;
4980;SDS011;2507;50.392;7.482;2023-12-04T05:28:58;22.53;;;16.63;;
4980;SDS011;2507;50.392;7.482;2023-12-04T05:31:23;22.80;;;16.70;;
4980;SDS011;2507;50.392;7.482;2023-12-04T05:33:49;21.37;;;15.40;;
4980;SDS011;2507;50.392;7.482;2023-12-04T05:36:14;23.47;;;17.97;;
4980;SDS011;2507;50.392;7.482;2023-12-04T05:38:39;24.47;;;16.63;;
4980;SDS011;2507;50.392;7.482;2023-12-04T05:41:04;21.40;;;15.90;;
4980;SDS011;2507;50.392;7.482;2023-12-04T05:43:30;21.70;;;16.63;;
4980;SDS011;2507;50.392;7.482;2023-12-04T05:45:55;19.07;;;15.07;;
4980;SDS011;2507;50.392;7.482;2023-12-04T05:48:20;21.00;;;16.43;;
4980;SDS011;2507;50.392;7.482;2023-12-04T05:50:46;21.00;;;16.00;;
4980;SDS011;2507;50.392;7.482;2023-12-04T05:53:11;20.13;;;15.03;;
4980;SDS011;2507;50.392;7.482;2023-12-04T05:55:36;21.20;;;16.70;;
4980;SDS011;2507;50.392;7.482;2023-12-04T05:58:01;19.43;;;15.80;;
4980;SDS011;2507;50.392;7.482;2023-12-04T06:00:27;20.90;;;15.23;;
4980;SDS011;2507;50.392;7.482;2023-12-04T06:02:52;19.30;;;14.10;;
4980;SDS011;2507;50.392;7.482;2023-12-04T06:05:18;18.23;;;15.00;;
4980;SDS011;2507;50.392;7.482;2023-12-04T06:07:43;19.80;;;14.57;;
4980;SDS011;2507;50.392;7.482;2023-12-04T06:10:09;17.97;;;14.60;;
4980;SDS011;2507;50.392;7.482;2023-12-04T06:12:34;18.00;;;14.50;;
4980;SDS011;2507;50.392;7.482;2023-12-04T06:15:00;18.90;;;14.47;;
4980;SDS011;2507;50.392;7.482;2023-12-04T06:17:26;18.40;;;14.17;;
4980;SDS011;2507;50.392;7.482;2023-12-04T06:19:52;20.97;;;14.43;;
4980;SDS011;2507;50.392;7.482;2023-12-04T06:22:18;18.67;;;13.70;;
4980;SDS011;2507;50.392;7.482;2023-12-04T06:24:45;15.97;;;13.10;;
4980;SDS011;2507;50.392;7.482;2023-12-04T06:27:11;18.10;;;14.47;;
4980;SDS011;2507;50.392;7.482;2023-12-04T06:29:41;18.93;;;14.97;;
4980;SDS011;2507;50.392;7.482;2023-12-04T06:32:06;19.83;;;15.10;;
4980;SDS011;2507;50.392;7.482;2023-12-04T06:34:32;23.37;;;15.33;;
4980;SDS011;2507;50.392;7.482;2023-12-04T06:36:58;19.97;;;14.90;;
4980;SDS011;2507;50.392;7.482;2023-12-04T06:39:26;20.10;;;14.90;;
4980;SDS011;2507;50.392;7.482;2023-12-04T06:41:57;21.50;;;15.77;;
4980;SDS011;2507;50.392;7.482;2023-12-04T06:44:22;19.10;;;14.17;;
4980;SDS011;2507;50.392;7.482;2023-12-04T06:46:48;17.67;;;14.30;;
4980;SDS011;2507;50.392;7.482;2023-12-04T06:49:15;17.87;;;14.10;;
4980;SDS011;2507;50.392;7.482;2023-12-04T06:51:42;21.83;;;15.07;;
4980;SDS011;2507;50.392;7.482;2023-12-04T06:54:07;21.10;;;15.20;;
4980;SDS011;2507;50.392;7.482;2023-12-04T06:56:32;18.43;;;14.33;;
4980;SDS011;2507;50.392;7.482;2023-12-04T06:58:58;17.20;;;13.23;;
4980;SDS011;2507;50.392;7.482;2023-12-04T07:01:23;20.30;;;14.87;;
4980;SDS011;2507;50.392;7.482;2023-12-04T07:03:48;20.70;;;14.00;;
4980;SDS011;2507;50.392;7.482;2023-12-04T07:06:14;18.30;;;13.63;;
4980;SDS011;2507;50.392;7.482;2023-12-04T07:08:39;16.53;;;12.13;;
4980;SDS011;2507;50.392;7.482;2023-12-04T07:11:05;16.57;;;12.93;;
4980;SDS011;2507;50.392;7.482;2023-12-04T07:13:32;20.70;;;13.83;;
4980;SDS011;2507;50.392;7.482;2023-12-04T07:15:57;16.93;;;11.90;;
4980;SDS011;2507;50.392;7.482;2023-12-04T07:18:24;18.17;;;12.90;;
4980;SDS011;2507;50.392;7.482;2023-12-04T07:20:49;14.30;;;11.63;;
4980;SDS011;2507;50.392;7.482;2023-12-04T07:23:15;14.90;;;12.87;;
4980;SDS011;2507;50.392;7.482;2023-12-04T07:25:40;15.47;;;11.40;;
4980;SDS011;2507;50.392;7.482;2023-12-04T07:28:06;16.83;;;13.23;;
4980;SDS011;2507;50.392;7.482;2023-12-04T07:30:31;16.90;;;12.30;;
4980;SDS011;2507;50.392;7.482;2023-12-04T07:32:57;16.57;;;11.63;;
4980;SDS011;2507;50.392;7.482;2023-12-04T07:35:22;17.30;;;12.40;;
4980;SDS011;2507;50.392;7.482;2023-12-04T07:37:47;15.90;;;13.20;;
4980;SDS011;2507;50.392;7.482;2023-12-04T07:40:13;14.70;;;12.17;;
4980;SDS011;2507;50.392;7.482;2023-12-04T07:42:39;17.20;;;12.20;;
4980;SDS011;2507;50.392;7.482;2023-12-04T07:45:04;15.73;;;10.77;;
4980;SDS011;2507;50.392;7.482;2023-12-04T07:47:30;14.27;;;11.43;;
4980;SDS011;2507;50.392;7.482;2023-12-04T07:49:55;18.43;;;12.27;;
4980;SDS011;2507;50.392;7.482;2023-12-04T07:52:20;14.70;;;11.60;;
4980;SDS011;2507;50.392;7.482;2023-12-04T07:54:45;13.37;;;10.90;;
4980;SDS011;2507;50.392;7.482;2023-12-04T07:57:11;17.07;;;11.53;;
4980;SDS011;2507;50.392;7.482;2023-12-04T07:59:36;15.80;;;11.60;;
4980;SDS011;2507;50.392;7.482;2023-12-04T08:02:01;12.63;;;10.40;;
4980;SDS011;2507;50.392;7.482;2023-12-04T08:04:27;17.80;;;12.33;;
4980;SDS011;2507;50.392;7.482;2023-12-04T08:06:52;14.30;;;12.00;;
4980;SDS011;2507;50.392;7.482;2023-12-04T08:09:18;15.23;;;11.20;;
4980;SDS011;2507;50.392;7.482;2023-12-04T08:11:43;13.33;;;10.63;;
4980;SDS011;2507;50.392;7.482;2023-12-04T08:14:08;18.37;;;11.90;;
4980;SDS011;2507;50.392;7.482;2023-12-04T08:16:33;16.43;;;12.43;;
4980;SDS011;2507;50.392;7.482;2023-12-04T08:18:59;15.43;;;10.97;;
4980;SDS011;2507;50.392;7.482;2023-12-04T08:21:24;13.57;;;10.53;;
4980;SDS011;2507;50.392;7.482;2023-12-04T08:23:49;13.93;;;10.30;;
4980;SDS011;2507;50.392;7.482;2023-12-04T08:26:20;15.17;;;11.37;;
4980;SDS011;2507;50.392;7.482;2023-12-04T08:28:47;15.07;;;10.87;;
4980;SDS011;2507;50.392;7.482;2023-12-04T08:31:12;13.73;;;9.90;;
4980;SDS011;2507;50.392;7.482;2023-12-04T08:33:38;12.47;;;10.00;;
4980;SDS011;2507;50.392;7.482;2023-12-04T08:36:03;14.00;;;10.30;;
4980;SDS011;2507;50.392;7.482;2023-12-04T08:38:29;13.40;;;9.83;;
4980;SDS011;2507;50.392;7.482;2023-12-04T08:40:54;10.80;;;8.67;;
4980;SDS011;2507;50.392;7.482;2023-12-04T08:43:19;12.70;;;8.87;;
4980;SDS011;2507;50.392;7.482;2023-12-04T08:45:45;11.57;;;9.50;;
4980;SDS011;2507;50.392;7.482;2023-12-04T08:48:10;15.00;;;9.50;;
4980;SDS011;2507;50.392;7.482;2023-12-04T08:50:36;11.33;;;8.70;;
4980;SDS011;2507;50.392;7.482;2023-12-04T08:53:02;11.40;;;8.93;;
4980;SDS011;2507;50.392;7.482;2023-12-04T08:55:28;11.63;;;9.87;;
4980;SDS011;2507;50.392;7.482;2023-12-04T08:57:53;13.17;;;10.07;;
4980;SDS011;2507;50.392;7.482;2023-12-04T09:00:19;13.27;;;9.27;;
4980;SDS011;2507;50.392;7.482;2023-12-04T09:02:44;14.53;;;10.20;;
4980;SDS011;2507;50.392;7.482;2023-12-04T09:05:09;12.13;;;9.70;;
4980;SDS011;2507;50.392;7.482;2023-12-04T09:07:35;12.40;;;9.97;;
4980;SDS011;2507;50.392;7.482;2023-12-04T09:10:01;11.23;;;9.43;;
4980;SDS011;2507;50.392;7.482;2023-12-04T09:12:26;11.63;;;10.20;;
4980;SDS011;2507;50.392;7.482;2023-12-04T09:14:52;10.47;;;9.47;;
4980;SDS011;2507;50.392;7.482;2023-12-04T09:17:17;12.90;;;9.80;;
4980;SDS011;2507;50.392;7.482;2023-12-04T09:19:42;11.30;;;9.90;;
4980;SDS011;2507;50.392;7.482;2023-12-04T09:22:07;11.20;;;9.60;;
4980;SDS011;2507;50.392;7.482;2023-12-04T09:24:33;13.43;;;10.50;;
4980;SDS011;2507;50.392;7.482;2023-12-04T09:26:58;10.93;;;9.10;;
4980;SDS011;2507;50.392;7.482;2023-12-04T09:29:24;11.27;;;9.97;;
4980;SDS011;2507;50.392;7.482;2023-12-04T09:31:51;12.00;;;10.50;;
4980;SDS011;2507;50.392;7.482;2023-12-04T09:34:16;11.53;;;9.33;;
4980;SDS011;2507;50.392;7.482;2023-12-04T09:36:43;11.33;;;9.40;;
4980;SDS011;2507;50.392;7.482;2023-12-04T09:39:08;15.87;;;9.77;;
4980;SDS011;2507;50.392;7.482;2023-12-04T09:41:34;12.90;;;9.50;;
4980;SDS011;2507;50.392;7.482;2023-12-04T09:44:00;16.53;;;11.70;;
4980;SDS011;2507;50.392;7.482;2023-12-04T09:46:26;13.70;;;10.17;;
4980;SDS011;2507;50.392;7.482;2023-12-04T09:48:52;11.20;;;9.10;;
4980;SDS011;2507;50.392;7.482;2023-12-04T09:51:17;12.20;;;9.87;;
4980;SDS011;2507;50.392;7.482;2023-12-04T09:53:43;11.70;;;9.90;;
4980;SDS011;2507;50.392;7.482;2023-12-04T09:56:12;12.30;;;9.87;;
4980;SDS011;2507;50.392;7.482;2023-12-04T09:58:40;13.73;;;10.97;;
4980;SDS011;2507;50.392;7.482;2023-12-04T10:01:06;13.43;;;10.80;;
4980;SDS011;2507;50.392;7.482;2023-12-04T10:03:33;13.27;;;10.57;;
4980;SDS011;2507;50.392;7.482;2023-12-04T10:06:00;12.93;;;9.70;;
4980;SDS011;2507;50.392;7.482;2023-12-04T10:08:25;11.73;;;9.97;;
4980;SDS011;2507;50.392;7.482;2023-12-04T10:10:50;13.40;;;10.33;;
4980;SDS011;2507;50.392;7.482;2023-12-04T10:13:15;11.30;;;9.40;;
4980;SDS011;2507;50.392;7.482;2023-12-04T10:15:46;11.77;;;10.10;;
4980;SDS011;2507;50.392;7.482;2023-12-04T10:18:24;14.20;;;11.57;;
4980;SDS011;2507;50.392;7.482;2023-12-04T10:20:56;11.53;;;9.70;;
4980;SDS011;2507;50.392;7.482;2023-12-04T10:23:22;11.73;;;9.80;;
4980;SDS011;2507;50.392;7.482;2023-12-04T10:25:48;11.07;;;9.87;;
4980;SDS011;2507;50.392;7.482;2023-12-04T10:28:17;13.13;;;10.60;;
4980;SDS011;2507;50.392;7.482;2023-12-04T10:30:43;11.60;;;9.03;;
4980;SDS011;2507;50.392;7.482;2023-12-04T10:33:12;12.87;;;10.27;;
4980;SDS011;2507;50.392;7.482;2023-12-04T10:35:39;11.13;;;9.33;;
4980;SDS011;2507;50.392;7.482;2023-12-04T10:38:05;13.27;;;10.50;;
4980;SDS011;2507;50.392;7.482;2023-12-04T10:40:32;10.93;;;9.80;;
4980;SDS011;2507;50.392;7.482;2023-12-04T10:43:12;11.73;;;9.63;;
4980;SDS011;2507;50.392;7.482;2023-12-04T10:45:40;13.80;;;10.30;;
4980;SDS011;2507;50.392;7.482;2023-12-04T10:48:07;10.60;;;9.43;;
4980;SDS011;2507;50.392;7.482;2023-12-04T10:50:33;13.20;;;9.60;;
4980;SDS011;2507;50.392;7.482;2023-12-04T10:53:01;13.50;;;9.90;;
4980;SDS011;2507;50.392;7.482;2023-12-04T10:55:29;12.23;;;10.40;;
4980;SDS011;2507;50.392;7.482;2023-12-04T10:57:54;15.83;;;11.20;;
4980;SDS011;2507;50.392;7.482;2023-12-04T11:00:20;13.60;;;10.70;;
4980;SDS011;2507;50.392;7.482;2023-12-04T11:02:46;15.27;;;11.20;;
4980;SDS011;2507;50.392;7.482;2023-12-04T11:05:15;14.10;;;11.43;;
4980;SDS011;2507;50.392;7.482;2023-12-04T11:07:51;14.30;;;11.43;;
4980;SDS011;2507;50.392;7.482;2023-12-04T11:10:21;22.03;;;12.10;;
4980;SDS011;2507;50.392;7.482;2023-12-04T11:12:49;13.77;;;11.20;;
4980;SDS011;2507;50.392;7.482;2023-12-04T11:15:20;14.90;;;12.00;;
4980;SDS011;2507;50.392;7.482;2023-12-04T11:17:49;18.60;;;12.70;;
4980;SDS011;2507;50.392;7.482;2023-12-04T11:20:19;12.30;;;10.70;;
4980;SDS011;2507;50.392;7.482;2023-12-04T11:22:48;16.30;;;12.63;;
4980;SDS011;2507;50.392;7.482;2023-12-04T11:25:15;13.60;;;10.90;;
4980;SDS011;2507;50.392;7.482;2023-12-04T11:27:40;28.20;;;19.33;;
4980;SDS011;2507;50.392;7.482;2023-12-04T11:30:07;14.17;;;11.30;;
4980;SDS011;2507;50.392;7.482;2023-12-04T11:32:43;13.83;;;10.93;;
4980;SDS011;2507;50.392;7.482;2023-12-04T11:35:14;16.40;;;12.83;;
4980;SDS011;2507;50.392;7.482;2023-12-04T11:37:40;17.90;;;13.83;;
4980;SDS011;2507;50.392;7.482;2023-12-04T11:40:06;17.60;;;13.97;;
4980;SDS011;2507;50.392;7.482;2023-12-04T11:42:32;16.00;;;12.90;;
4980;SDS011;2507;50.392;7.482;2023-12-04T11:44:58;14.90;;;11.80;;
4980;SDS011;2507;50.392;7.482;2023-12-04T11:47:23;16.60;;;12.40;;
4980;SDS011;2507;50.392;7.482;2023-12-04T11:49:49;17.03;;;12.70;;
4980;SDS011;2507;50.392;7.482;2023-12-04T11:52:14;15.13;;;11.70;;
4980;SDS011;2507;50.392;7.482;2023-12-04T11:54:59;15.90;;;13.00;;
4980;SDS011;2507;50.392;7.482;2023-12-04T11:57:33;16.40;;;11.87;;
4980;SDS011;2507;50.392;7.482;2023-12-04T12:02:48;13.20;;;11.10;;
4980;SDS011;2507;50.392;7.482;2023-12-04T12:05:20;13.47;;;11.00;;
4980;SDS011;2507;50.392;7.482;2023-12-04T12:07:46;16.77;;;11.43;;
4980;SDS011;2507;50.392;7.482;2023-12-04T12:10:12;16.47;;;11.13;;
4980;SDS011;2507;50.392;7.482;2023-12-04T12:12:38;13.73;;;11.00;;
4980;SDS011;2507;50.392;7.482;2023-12-04T12:15:04;14.83;;;11.87;;
4980;SDS011;2507;50.392;7.482;2023-12-04T12:17:34;13.13;;;10.03;;
4980;SDS011;2507;50.392;7.482;2023-12-04T12:19:59;12.87;;;10.30;;
4980;SDS011;2507;50.392;7.482;2023-12-04T12:22:24;12.40;;;10.40;;
4980;SDS011;2507;50.392;7.482;2023-12-04T12:24:50;13.30;;;10.43;;
4980;SDS011;2507;50.392;7.482;2023-12-04T12:27:16;12.33;;;9.33;;
4980;SDS011;2507;50.392;7.482;2023-12-04T12:29:41;11.73;;;9.93;;
4980;SDS011;2507;50.392;7.482;2023-12-04T12:32:06;12.07;;;10.07;;
4980;SDS011;2507;50.392;7.482;2023-12-04T12:34:32;12.63;;;10.00;;
4980;SDS011;2507;50.392;7.482;2023-12-04T12:37:00;16.93;;;11.57;;
4980;SDS011;2507;50.392;7.482;2023-12-04T12:39:26;12.93;;;10.50;;
4980;SDS011;2507;50.392;7.482;2023-12-04T12:41:51;12.53;;;10.37;;
4980;SDS011;2507;50.392;7.482;2023-12-04T12:44:16;11.20;;;9.43;;
4980;SDS011;2507;50.392;7.482;2023-12-04T12:46:42;10.13;;;9.10;;
4980;SDS011;2507;50.392;7.482;2023-12-04T12:49:13;14.60;;;10.07;;
4980;SDS011;2507;50.392;7.482;2023-12-04T12:51:39;11.40;;;9.60;;
4980;SDS011;2507;50.392;7.482;2023-12-04T12:54:05;12.47;;;10.10;;
4980;SDS011;2507;50.392;7.482;2023-12-04T12:56:30;12.67;;;10.57;;
4980;SDS011;2507;50.392;7.482;2023-12-04T12:58:56;11.60;;;10.40;;
4980;SDS011;2507;50.392;7.482;2023-12-04T13:01:22;11.90;;;9.50;;
4980;SDS011;2507;50.392;7.482;2023-12-04T13:03:50;11.57;;;10.37;;
4980;SDS011;2507;50.392;7.482;2023-12-04T13:06:15;14.23;;;11.90;;
4980;SDS011;2507;50.392;7.482;2023-12-04T13:08:40;11.43;;;10.23;;
4980;SDS011;2507;50.392;7.482;2023-12-04T13:11:06;12.10;;;10.20;;
4980;SDS011;2507;50.392;7.482;2023-12-04T13:13:31;13.37;;;10.80;;
4980;SDS011;2507;50.392;7.482;2023-12-04T13:15:57;11.83;;;10.00;;
4980;SDS011;2507;50.392;7.482;2023-12-04T13:18:22;12.27;;;10.53;;
4980;SDS011;2507;50.392;7.482;2023-12-04T13:20:48;14.40;;;9.97;;
4980;SDS011;2507;50.392;7.482;2023-12-04T13:23:13;11.80;;;10.07;;
4980;SDS011;2507;50.392;7.482;2023-12-04T13:25:38;11.87;;;9.90;;
4980;SDS011;2507;50.392;7.482;2023-12-04T13:28:04;12.83;;;9.70;;
4980;SDS011;2507;50.392;7.482;2023-12-04T13:30:30;13.20;;;10.37;;
4980;SDS011;2507;50.392;7.482;2023-12-04T13:32:56;11.63;;;9.60;;
4980;SDS011;2507;50.392;7.482;2023-12-04T13:35:21;21.27;;;13.43;;
4980;SDS011;2507;50.392;7.482;2023-12-04T13:37:46;11.13;;;9.60;;
4980;SDS011;2507;50.392;7.482;2023-12-04T13:40:19;12.00;;;9.83;;
4980;SDS011;2507;50.392;7.482;2023-12-04T13:42:44;9.63;;;8.70;;
4980;SDS011;2507;50.392;7.482;2023-12-04T13:45:28;11.63;;;10.17;;
4980;SDS011;2507;50.392;7.482;2023-12-04T13:47:53;14.40;;;9.87;;
4980;SDS011;2507;50.392;7.482;2023-12-04T13:50:19;9.53;;;8.60;;
4980;SDS011;2507;50.392;7.482;2023-12-04T13:52:44;9.30;;;8.27;;
4980;SDS011;2507;50.392;7.482;2023-12-04T13:55:09;21.57;;;14.00;;
4980;SDS011;2507;50.392;7.482;2023-12-04T13:58:01;9.33;;;8.27;;
4980;SDS011;2507;50.392;7.482;2023-12-04T14:00:29;10.23;;;8.70;;
4980;SDS011;2507;50.392;7.482;2023-12-04T14:02:54;14.20;;;10.30;;
4980;SDS011;2507;50.392;7.482;2023-12-04T14:05:28;9.20;;;8.30;;
4980;SDS011;2507;50.392;7.482;2023-12-04T14:07:54;9.13;;;8.10;;
4980;SDS011;2507;50.392;7.482;2023-12-04T14:10:19;10.53;;;9.30;;
4980;SDS011;2507;50.392;7.482;2023-12-04T14:12:45;9.27;;;8.37;;
4980;SDS011;2507;50.392;7.482;2023-12-04T14:15:10;10.63;;;9.63;;
4980;SDS011;2507;50.392;7.482;2023-12-04T14:17:35;9.60;;;8.60;;
4980;SDS011;2507;50.392;7.482;2023-12-04T14:20:00;10.47;;;9.33;;
4980;SDS011;2507;50.392;7.482;2023-12-04T14:22:34;11.37;;;9.63;;
4980;SDS011;2507;50.392;7.482;2023-12-04T14:24:59;10.07;;;9.07;;
4980;SDS011;2507;50.392;7.482;2023-12-04T14:27:24;10.60;;;9.50;;
4980;SDS011;2507;50.392;7.482;2023-12-04T14:29:49;11.93;;;10.57;;
4980;SDS011;2507;50.392;7.482;2023-12-04T14:32:14;10.63;;;9.17;;
4980;SDS011;2507;50.392;7.482;2023-12-04T14:34:40;10.50;;;9.37;;
4980;SDS011;2507;50.392;7.482;2023-12-04T14:37:05;11.40;;;10.13;;
4980;SDS011;2507;50.392;7.482;2023-12-04T14:39:30;11.20;;;10.00;;
4980;SDS011;2507;50.392;7.482;2023-12-04T14:41:55;10.63;;;9.53;;
4980;SDS011;2507;50.392;7.482;2023-12-04T14:44:21;11.80;;;10.37;;
4980;SDS011;2507;50.392;7.482;2023-12-04T14:46:46;11.40;;;10.20;;